createdAt,value
2023-03-18T00:01:17.000Z,19.63
2023-03-18T00:03:44.012Z,25.38
2023-03-18T00:06:18.534Z,29.63
2023-03-18T00:08:48.152Z,23.60
2023-03-18T00:11:18.422Z,18.38
2023-03-18T00:13:46.604Z,23.85
2023-03-18T00:16:14.621Z,17.42
2023-03-18T00:18:42.451Z,16.08
2023-03-18T00:21:09.952Z,25.60
2023-03-18T00:23:37.135Z,22.17
2023-03-18T00:26:04.408Z,27.35
2023-03-18T00:28:31.666Z,25.08
2023-03-18T00:31:09.708Z,22.83
2023-03-18T00:33:43.498Z,22.92
2023-03-18T00:36:13.664Z,20.83
2023-03-18T00:38:43.062Z,24.17
2023-03-18T00:41:15.780Z,24.63
2023-03-18T00:43:54.667Z,22.40
2023-03-18T00:46:29.464Z,17.17
2023-03-18T00:49:00.372Z,24.70
2023-03-18T00:51:29.822Z,20.63
2023-03-18T00:54:00.335Z,18.83
2023-03-18T00:56:30.814Z,24.00
2023-03-18T00:58:58.384Z,30.02
2023-03-18T01:01:26.617Z,31.88
2023-03-18T01:03:54.934Z,27.00
2023-03-18T01:06:28.788Z,21.67
2023-03-18T01:08:57.025Z,21.00
2023-03-18T01:11:25.053Z,17.25
2023-03-18T01:13:52.933Z,20.77
2023-03-18T01:18:59.839Z,19.17
2023-03-18T01:21:26.674Z,22.48
2023-03-18T01:23:53.492Z,17.63
2023-03-18T01:26:20.519Z,15.90
2023-03-18T01:28:47.971Z,15.60
2023-03-18T01:31:15.460Z,12.93
2023-03-18T01:33:42.398Z,13.05
2023-03-18T01:36:10.542Z,17.17
2023-03-18T01:38:38.369Z,17.45
2023-03-18T01:41:05.310Z,17.70
2023-03-18T01:43:36.225Z,16.13
2023-03-18T01:46:44.914Z,14.65
2023-03-18T01:49:28.728Z,12.00
2023-03-18T01:52:07.694Z,17.83
2023-03-18T01:54:41.012Z,17.98
2023-03-18T01:57:07.808Z,14.27
2023-03-18T01:59:40.134Z,13.68
2023-03-18T02:02:11.320Z,15.30
2023-03-18T02:04:45.881Z,13.98
2023-03-18T02:07:29.785Z,16.48
2023-03-18T02:10:02.499Z,14.77
2023-03-18T02:12:35.487Z,14.98
2023-03-18T02:17:36.279Z,15.63
2023-03-18T02:20:10.450Z,20.15
2023-03-18T02:22:44.784Z,17.85
2023-03-18T02:25:58.447Z,17.00
2023-03-18T02:28:29.033Z,15.68
2023-03-18T02:30:59.905Z,16.48
2023-03-18T02:33:34.543Z,24.75
2023-03-18T02:36:10.296Z,14.57
2023-03-18T02:38:45.333Z,20.30
2023-03-18T02:41:28.883Z,12.52
2023-03-18T02:43:56.016Z,15.25
2023-03-18T02:46:46.921Z,18.92
2023-03-18T02:49:14.715Z,15.05
2023-03-18T02:51:41.913Z,14.02
2023-03-18T02:54:13.754Z,13.93
2023-03-18T02:56:42.720Z,15.43
2023-03-18T02:59:10.824Z,11.73
2023-03-18T03:01:39.613Z,10.95
2023-03-18T03:04:07.488Z,14.20
2023-03-18T03:06:35.974Z,16.42
2023-03-18T03:09:05.249Z,11.80
2023-03-18T03:11:32.624Z,14.27
2023-03-18T03:13:59.460Z,16.20
2023-03-18T03:16:26.472Z,14.13
2023-03-18T03:18:53.256Z,15.10
2023-03-18T03:21:20.893Z,15.43
2023-03-18T03:23:48.415Z,14.27
2023-03-18T03:26:16.834Z,14.55
2023-03-18T03:28:44.212Z,12.77
2023-03-18T03:31:11.152Z,14.60
2023-03-18T03:33:43.918Z,13.25
2023-03-18T03:36:16.870Z,12.95
2023-03-18T03:41:12.743Z,15.20
2023-03-18T03:43:40.498Z,16.17
2023-03-18T03:46:09.356Z,11.73
2023-03-18T03:48:38.046Z,13.00
2023-03-18T03:51:06.337Z,12.65
2023-03-18T03:53:33.926Z,12.40
2023-03-18T03:56:00.952Z,10.00
2023-03-18T03:58:28.984Z,9.68
2023-03-18T04:00:56.435Z,11.18
2023-03-18T04:03:23.722Z,11.07
2023-03-18T04:05:50.470Z,12.30
2023-03-18T04:08:17.285Z,14.38
2023-03-18T04:10:44.617Z,14.35
2023-03-18T04:13:11.530Z,13.55
2023-03-18T04:15:38.384Z,10.98
2023-03-18T04:18:07.069Z,15.05
2023-03-18T04:20:38.725Z,12.60
2023-03-18T04:23:07.325Z,12.23
2023-03-18T04:25:35.233Z,17.48
2023-03-18T04:28:02.844Z,15.80
2023-03-18T04:30:30.788Z,12.48
2023-03-18T04:32:59.628Z,15.95
2023-03-18T04:35:28.109Z,22.70
2023-03-18T04:37:54.953Z,23.60
2023-03-18T04:40:22.013Z,16.63
2023-03-18T04:42:49.248Z,13.43
2023-03-18T04:45:16.828Z,13.80
2023-03-18T04:47:45.255Z,14.40
2023-03-18T04:50:13.929Z,14.32
2023-03-18T04:52:42.704Z,15.27
2023-03-18T04:55:10.763Z,21.48
2023-03-18T04:57:38.770Z,20.50
2023-03-18T05:00:14.762Z,18.55
2023-03-18T05:02:41.839Z,14.23
2023-03-18T05:05:09.666Z,25.33
2023-03-18T05:07:37.069Z,21.77
2023-03-18T05:10:08.547Z,20.77
2023-03-18T05:12:36.663Z,25.27
2023-03-18T05:15:05.931Z,21.48
2023-03-18T05:17:32.812Z,19.92
2023-03-18T05:19:59.747Z,16.90
2023-03-18T05:22:26.577Z,14.85
2023-03-18T05:24:53.497Z,17.35
2023-03-18T05:27:20.822Z,16.20
2023-03-18T05:29:48.223Z,14.35
2023-03-18T05:32:15.256Z,15.95
2023-03-18T05:34:42.880Z,11.70
2023-03-18T05:37:13.145Z,13.23
2023-03-18T05:39:40.291Z,15.13
2023-03-18T05:42:08.289Z,18.38
2023-03-18T05:44:35.337Z,17.05
2023-03-18T05:47:02.851Z,16.23
2023-03-18T05:49:30.029Z,15.55
2023-03-18T05:51:57.132Z,16.70
2023-03-18T05:54:24.122Z,15.40
2023-03-18T05:56:52.775Z,14.93
2023-03-18T05:59:22.349Z,13.82
2023-03-18T06:01:49.510Z,15.95
2023-03-18T06:04:17.324Z,17.15
2023-03-18T06:06:44.227Z,16.90
2023-03-18T06:09:13.583Z,13.75
2023-03-18T06:11:40.806Z,17.63
2023-03-18T06:14:08.662Z,17.67
2023-03-18T06:16:36.321Z,12.88
2023-03-18T06:19:04.412Z,13.52
2023-03-18T06:21:33.307Z,15.15
2023-03-18T06:24:02.275Z,15.88
2023-03-18T06:26:29.462Z,16.33
2023-03-18T06:28:58.403Z,13.35
2023-03-18T06:31:26.082Z,14.82
2023-03-18T06:33:53.429Z,15.18
2023-03-18T06:36:21.610Z,16.02
2023-03-18T06:38:48.641Z,15.65
2023-03-18T06:41:16.219Z,12.75
2023-03-18T06:43:43.289Z,13.68
2023-03-18T06:46:10.604Z,13.27
2023-03-18T06:48:40.503Z,14.23
2023-03-18T06:51:08.167Z,19.33
2023-03-18T06:53:36.630Z,13.35
2023-03-18T06:56:06.011Z,18.60
2023-03-18T06:58:32.859Z,16.92
2023-03-18T07:01:00.289Z,26.27
2023-03-18T07:03:28.106Z,17.77
2023-03-18T07:05:56.323Z,18.58
2023-03-18T07:08:23.777Z,18.88
2023-03-18T07:10:57.511Z,20.20
2023-03-18T07:13:24.924Z,21.25
2023-03-18T07:15:51.795Z,16.33
2023-03-18T07:18:18.658Z,19.33
2023-03-18T07:20:45.746Z,18.73
2023-03-18T07:23:13.412Z,15.68
2023-03-18T07:25:40.455Z,14.93
2023-03-18T07:28:07.210Z,14.88
2023-03-18T07:30:34.848Z,14.95
2023-03-18T07:33:02.414Z,20.45
2023-03-18T07:35:29.362Z,16.77
2023-03-18T07:37:56.877Z,17.25
2023-03-18T07:40:24.441Z,22.98
2023-03-18T07:42:53.798Z,18.85
2023-03-18T07:45:21.254Z,17.20
2023-03-18T07:47:48.260Z,15.05
2023-03-18T07:50:16.433Z,16.38
2023-03-18T07:52:43.321Z,22.50
2023-03-18T07:55:12.014Z,16.95
2023-03-18T07:57:39.232Z,18.67
2023-03-18T08:00:08.971Z,18.58
2023-03-18T08:02:36.369Z,22.33
2023-03-18T08:05:06.828Z,23.20
2023-03-18T08:07:34.968Z,19.42
2023-03-18T08:10:02.576Z,20.95
2023-03-18T08:12:45.079Z,18.65
2023-03-18T08:15:18.530Z,15.95
2023-03-18T08:17:45.356Z,17.83
2023-03-18T08:20:12.950Z,18.10
2023-03-18T08:22:39.835Z,17.85
2023-03-18T08:25:07.384Z,19.05
2023-03-18T08:27:34.218Z,15.30
2023-03-18T08:30:03.665Z,20.90
2023-03-18T08:32:31.599Z,16.27
2023-03-18T08:34:58.711Z,15.35
2023-03-18T08:37:26.906Z,12.50
2023-03-18T08:39:54.567Z,14.38
2023-03-18T08:42:22.146Z,18.88
2023-03-18T08:44:51.135Z,18.23
2023-03-18T08:47:18.228Z,17.08
2023-03-18T08:49:45.458Z,16.20
2023-03-18T08:52:12.897Z,18.95
2023-03-18T08:54:39.880Z,15.60
2023-03-18T08:57:07.197Z,17.27
2023-03-18T08:59:34.883Z,16.38
2023-03-18T09:02:01.810Z,16.58
2023-03-18T09:04:29.720Z,13.90
2023-03-18T09:06:56.967Z,15.77
2023-03-18T09:09:31.012Z,16.20
2023-03-18T09:12:05.823Z,17.45
2023-03-18T09:14:33.087Z,13.63
2023-03-18T09:17:01.255Z,15.00
2023-03-18T09:19:28.388Z,16.45
2023-03-18T09:21:55.498Z,13.60
2023-03-18T09:24:22.626Z,18.85
2023-03-18T09:26:55.553Z,12.15
2023-03-18T09:29:27.558Z,13.38
2023-03-18T09:32:01.227Z,15.30
2023-03-18T09:34:29.007Z,17.65
2023-03-18T09:37:02.806Z,15.65
2023-03-18T09:39:33.784Z,12.70
2023-03-18T09:42:31.405Z,11.10
2023-03-18T09:45:23.160Z,12.93
2023-03-18T09:48:30.649Z,12.55
2023-03-18T09:51:09.636Z,14.63
2023-03-18T09:53:50.703Z,14.20
2023-03-18T09:56:25.902Z,10.95
2023-03-18T09:59:25.880Z,15.32
2023-03-18T10:01:55.949Z,12.70
2023-03-18T10:04:29.033Z,12.68
2023-03-18T10:07:08.781Z,12.73
2023-03-18T10:09:56.175Z,15.32
2023-03-18T10:12:40.528Z,12.70
2023-03-18T10:15:32.664Z,12.10
2023-03-18T10:18:13.155Z,16.45
2023-03-18T10:21:20.423Z,13.15
2023-03-18T10:24:27.470Z,13.70
2023-03-18T10:27:38.712Z,10.52
2023-03-18T10:30:22.530Z,10.95
2023-03-18T10:33:03.985Z,11.50
2023-03-18T10:35:52.862Z,12.13
2023-03-18T10:38:32.016Z,10.18
2023-03-18T10:40:59.185Z,13.90
2023-03-18T10:43:32.069Z,11.95
2023-03-18T10:46:07.761Z,13.13
2023-03-18T10:48:44.188Z,11.32
2023-03-18T10:51:31.560Z,13.00
2023-03-18T10:54:15.519Z,8.75
2023-03-18T10:56:43.020Z,11.95
2023-03-18T10:59:19.049Z,10.52
2023-03-18T11:01:49.891Z,12.70
2023-03-18T11:04:21.583Z,11.77
2023-03-18T11:07:06.021Z,12.70
2023-03-18T11:09:39.438Z,13.00
2023-03-18T11:12:25.931Z,10.27
2023-03-18T11:14:53.887Z,11.98
2023-03-18T11:17:35.788Z,12.32
2023-03-18T11:20:33.644Z,18.38
2023-03-18T11:23:13.580Z,14.82
2023-03-18T11:25:40.615Z,13.35
2023-03-18T11:28:20.950Z,12.88
2023-03-18T11:30:56.415Z,10.23
2023-03-18T11:33:33.529Z,12.43
2023-03-18T11:36:06.993Z,11.73
2023-03-18T11:38:37.861Z,12.50
2023-03-18T11:41:09.167Z,11.40
2023-03-18T11:43:38.190Z,10.93
2023-03-18T11:46:08.945Z,14.20
2023-03-18T11:48:42.776Z,11.35
2023-03-18T11:51:42.834Z,10.38
2023-03-18T11:54:23.752Z,13.05
2023-03-18T11:57:03.217Z,13.27
2023-03-18T11:59:56.565Z,12.63
2023-03-18T12:06:05.806Z,13.30
2023-03-18T12:09:00.972Z,12.95
2023-03-18T12:11:48.821Z,9.73
2023-03-18T12:14:21.956Z,18.40
2023-03-18T12:17:14.856Z,15.23
2023-03-18T12:20:19.695Z,11.45
2023-03-18T12:23:15.260Z,16.15
2023-03-18T12:25:54.068Z,10.43
2023-03-18T12:29:07.195Z,13.48
2023-03-18T12:31:36.651Z,13.60
2023-03-18T12:34:04.884Z,14.77
2023-03-18T12:37:00.266Z,10.07
2023-03-18T12:39:52.610Z,16.40
2023-03-18T12:43:04.766Z,15.02
2023-03-18T12:45:39.773Z,16.23
2023-03-18T12:48:43.766Z,12.65
2023-03-18T12:51:21.755Z,15.90
2023-03-18T12:54:00.898Z,16.45
2023-03-18T12:56:33.286Z,14.15
2023-03-18T12:59:24.627Z,14.20
2023-03-18T13:02:23.650Z,12.77
2023-03-18T13:04:58.106Z,18.75
2023-03-18T13:07:40.417Z,16.20
2023-03-18T13:10:24.755Z,14.23
2023-03-18T13:12:56.457Z,15.07
2023-03-18T13:15:35.779Z,15.65
2023-03-18T13:18:27.873Z,15.45
2023-03-18T13:20:58.856Z,15.25
2023-03-18T13:24:13.163Z,17.15
2023-03-18T13:27:23.452Z,13.38
2023-03-18T13:30:24.018Z,15.30
2023-03-18T13:33:34.822Z,13.20
2023-03-18T13:36:39.374Z,10.77
2023-03-18T13:39:24.924Z,15.23
2023-03-18T13:42:21.784Z,13.52
2023-03-18T13:45:22.342Z,14.82
2023-03-18T13:47:59.233Z,14.23
2023-03-18T13:50:42.188Z,11.35
2023-03-18T13:53:29.352Z,12.32
2023-03-18T13:55:56.364Z,14.63
2023-03-18T13:58:36.241Z,18.40
2023-03-18T14:01:36.121Z,20.33
2023-03-18T14:04:32.471Z,18.25
2023-03-18T14:07:17.620Z,17.75
2023-03-18T14:10:17.027Z,19.38
2023-03-18T14:12:47.527Z,20.13
2023-03-18T14:15:15.931Z,20.30
2023-03-18T14:17:48.425Z,17.20
2023-03-18T14:20:16.027Z,14.95
2023-03-18T14:22:45.097Z,15.65
2023-03-18T14:25:17.802Z,15.23
2023-03-18T14:27:56.376Z,16.95
2023-03-18T14:30:33.648Z,17.25
2023-03-18T14:33:05.451Z,14.20
2023-03-18T14:36:02.650Z,13.10
2023-03-18T14:39:07.193Z,12.80
2023-03-18T14:41:42.506Z,12.02
2023-03-18T14:44:27.900Z,14.18
2023-03-18T14:47:00.634Z,14.00
2023-03-18T14:49:46.028Z,19.25
2023-03-18T14:52:34.720Z,11.65
2023-03-18T14:55:07.715Z,15.63
2023-03-18T15:00:04.052Z,12.50
2023-03-18T15:02:38.211Z,12.27
2023-03-18T15:05:06.852Z,12.98
2023-03-18T15:07:39.690Z,12.85
2023-03-18T15:10:24.523Z,20.88
2023-03-18T15:13:13.493Z,16.20
2023-03-18T15:15:42.104Z,18.52
2023-03-18T15:18:17.275Z,15.20
2023-03-18T15:20:46.772Z,14.77
2023-03-18T15:23:14.893Z,13.85
2023-03-18T15:25:44.060Z,16.98
2023-03-18T15:28:23.783Z,18.25
2023-03-18T15:30:54.537Z,15.75
2023-03-18T15:33:29.388Z,16.00
2023-03-18T15:36:04.865Z,12.63
2023-03-18T15:38:33.658Z,14.80
2023-03-18T15:41:10.192Z,13.15
2023-03-18T15:43:45.176Z,16.30
2023-03-18T15:46:32.367Z,16.08
2023-03-18T15:49:02.770Z,16.08
2023-03-18T15:51:40.426Z,17.33
2023-03-18T15:54:19.149Z,13.95
2023-03-18T15:56:49.134Z,13.80
2023-03-18T15:59:24.485Z,14.93
2023-03-18T16:01:52.614Z,14.68
2023-03-18T16:04:21.732Z,17.42
2023-03-18T16:06:49.168Z,13.90
2023-03-18T16:09:20.391Z,14.18
2023-03-18T16:12:08.623Z,17.40
2023-03-18T16:14:42.753Z,20.58
2023-03-18T16:17:13.377Z,14.60
2023-03-18T16:19:40.863Z,16.58
2023-03-18T16:22:08.674Z,16.38
2023-03-18T16:24:36.875Z,14.68
2023-03-18T16:27:06.029Z,18.15
2023-03-18T16:29:41.608Z,17.70
2023-03-18T16:32:12.898Z,18.63
2023-03-18T16:34:39.995Z,26.08
2023-03-18T16:37:07.388Z,21.73
2023-03-18T16:39:35.414Z,14.45
2023-03-18T16:42:05.086Z,34.88
2023-03-18T16:44:35.753Z,27.75
2023-03-18T16:47:02.621Z,28.65
2023-03-18T16:49:31.787Z,18.27
2023-03-18T16:52:00.523Z,17.58
2023-03-18T16:54:32.805Z,18.02
2023-03-18T16:57:02.889Z,17.85
2023-03-18T16:59:35.478Z,15.48
2023-03-18T17:02:04.260Z,15.95
2023-03-18T17:04:34.756Z,17.02
2023-03-18T17:07:05.050Z,17.33
2023-03-18T17:09:32.115Z,20.30
2023-03-18T17:12:04.736Z,21.45
2023-03-18T17:14:43.363Z,15.13
2023-03-18T17:17:33.861Z,17.20
2023-03-18T17:20:00.680Z,15.48
2023-03-18T17:22:30.794Z,14.68
2023-03-18T17:24:58.122Z,13.68
2023-03-18T17:27:31.530Z,19.10
2023-03-18T17:29:58.346Z,15.85
2023-03-18T17:32:26.021Z,18.42
2023-03-18T17:34:54.409Z,14.00
2023-03-18T17:37:21.701Z,18.55
2023-03-18T17:39:48.512Z,17.52
2023-03-18T17:42:33.229Z,17.60
2023-03-18T17:45:26.104Z,17.20
2023-03-18T17:47:54.548Z,19.60
2023-03-18T17:50:21.394Z,18.98
2023-03-18T17:52:52.043Z,19.67
2023-03-18T17:55:22.863Z,19.42
2023-03-18T17:57:50.796Z,21.95
2023-03-18T18:00:21.513Z,22.75
2023-03-18T18:02:49.149Z,21.88
2023-03-18T18:05:19.732Z,24.20
2023-03-18T18:07:47.604Z,20.52
2023-03-18T18:10:17.472Z,29.83
2023-03-18T18:12:48.485Z,22.35
2023-03-18T18:15:22.963Z,20.13
2023-03-18T18:17:49.694Z,26.92
2023-03-18T18:20:18.698Z,22.35
2023-03-18T18:22:53.771Z,33.15
2023-03-18T18:25:27.450Z,25.58
2023-03-18T18:27:54.485Z,68.50
2023-03-18T18:30:24.017Z,65.72
2023-03-18T18:32:51.331Z,48.85
2023-03-18T18:35:22.739Z,49.65
2023-03-18T18:37:50.204Z,44.78
2023-03-18T18:40:18.921Z,43.38
2023-03-18T18:42:45.828Z,37.20
2023-03-18T18:45:19.174Z,27.60
2023-03-18T18:47:46.356Z,25.13
2023-03-18T18:50:19.856Z,26.48
2023-03-18T18:52:47.246Z,20.58
2023-03-18T18:55:14.194Z,23.67
2023-03-18T18:57:42.873Z,23.15
2023-03-18T19:00:23.876Z,24.27
2023-03-18T19:02:56.221Z,21.88
2023-03-18T19:05:23.941Z,23.80
2023-03-18T19:07:51.491Z,25.05
2023-03-18T19:10:18.553Z,24.70
2023-03-18T19:12:45.343Z,21.40
2023-03-18T19:15:15.456Z,23.40
2023-03-18T19:17:43.482Z,20.75
2023-03-18T19:20:29.999Z,22.42
2023-03-18T19:22:57.549Z,24.83
2023-03-18T19:25:25.815Z,27.10
2023-03-18T19:27:54.290Z,26.67
2023-03-18T19:30:24.253Z,24.13
2023-03-18T19:32:52.128Z,27.15
2023-03-18T19:35:19.119Z,22.65
2023-03-18T19:37:48.073Z,25.88
2023-03-18T19:40:24.413Z,39.33
2023-03-18T19:42:51.406Z,22.75
2023-03-18T19:45:18.513Z,26.70
2023-03-18T19:47:45.914Z,20.63
2023-03-18T19:50:19.565Z,21.08
2023-03-18T19:52:46.829Z,22.58
2023-03-18T19:55:15.688Z,19.85
2023-03-18T19:57:46.840Z,20.95
2023-03-18T20:00:25.703Z,21.42
2023-03-18T20:02:53.565Z,25.85
2023-03-18T20:05:23.290Z,20.95
2023-03-18T20:07:50.478Z,19.50
2023-03-18T20:10:19.967Z,21.55
2023-03-18T20:12:49.660Z,43.00
2023-03-18T20:15:23.131Z,53.92
2023-03-18T20:17:51.724Z,41.72
2023-03-18T20:20:27.729Z,41.83
2023-03-18T20:23:08.061Z,38.25
2023-03-18T20:25:41.102Z,37.20
2023-03-18T20:30:41.321Z,36.75
2023-03-18T20:33:08.727Z,32.92
2023-03-18T20:35:44.301Z,28.80
2023-03-18T20:38:38.797Z,26.63
2023-03-18T20:41:14.710Z,21.92
2023-03-18T20:43:41.507Z,22.13
2023-03-18T20:46:13.440Z,28.63
2023-03-18T20:48:41.790Z,21.25
2023-03-18T20:51:27.778Z,22.20
2023-03-18T20:53:55.124Z,23.73
2023-03-18T20:56:22.888Z,36.35
2023-03-18T20:58:50.761Z,43.05
2023-03-18T21:01:18.445Z,40.00
2023-03-18T21:03:45.439Z,32.00
2023-03-18T21:06:15.896Z,20.60
2023-03-18T21:08:43.123Z,22.45
2023-03-18T21:11:32.617Z,25.52
2023-03-18T21:13:59.896Z,27.33
2023-03-18T21:16:27.708Z,25.05
2023-03-18T21:18:54.629Z,24.48
2023-03-18T21:21:31.260Z,25.45
2023-03-18T21:23:58.228Z,19.00
2023-03-18T21:26:25.154Z,19.50
2023-03-18T21:28:52.739Z,19.92
2023-03-18T21:31:31.066Z,26.38
2023-03-18T21:33:57.877Z,34.08
2023-03-18T21:36:24.667Z,24.10
2023-03-18T21:38:51.641Z,27.15
2023-03-18T21:41:25.703Z,24.83
2023-03-18T21:43:53.162Z,22.17
2023-03-18T21:46:24.467Z,22.52
2023-03-18T21:48:52.193Z,23.08
2023-03-18T21:51:38.787Z,20.77
2023-03-18T21:54:16.711Z,21.70
2023-03-18T21:56:43.522Z,19.65
2023-03-18T21:59:10.436Z,19.58
2023-03-18T22:01:37.501Z,14.95
2023-03-18T22:04:04.437Z,16.13
2023-03-18T22:06:31.281Z,19.75
2023-03-18T22:08:58.052Z,16.85
2023-03-18T22:11:24.878Z,17.77
2023-03-18T22:13:51.699Z,24.30
2023-03-18T22:16:18.902Z,18.58
2023-03-18T22:18:47.357Z,22.27
2023-03-18T22:21:26.008Z,21.55
2023-03-18T22:23:53.741Z,22.75
2023-03-18T22:26:21.752Z,20.60
2023-03-18T22:28:50.552Z,23.45
2023-03-18T22:31:24.944Z,21.50
2023-03-18T22:33:52.193Z,18.63
2023-03-18T22:36:21.788Z,25.60
2023-03-18T22:38:49.052Z,26.42
2023-03-18T22:41:31.050Z,22.85
2023-03-18T22:43:59.835Z,22.95
2023-03-18T22:46:28.233Z,25.15
2023-03-18T22:48:55.262Z,20.02
2023-03-18T22:51:29.710Z,20.48
2023-03-18T22:53:56.703Z,23.98
2023-03-18T22:56:23.987Z,28.80
2023-03-18T22:58:51.401Z,26.10
2023-03-18T23:01:21.473Z,26.73
2023-03-18T23:03:48.934Z,27.98
2023-03-18T23:06:19.819Z,23.73
2023-03-18T23:08:47.031Z,29.98
2023-03-18T23:11:14.517Z,24.27
2023-03-18T23:13:44.763Z,21.15
2023-03-18T23:16:20.414Z,22.52
2023-03-18T23:18:47.796Z,21.77
2023-03-18T23:21:23.661Z,17.30
2023-03-18T23:23:52.300Z,18.50
2023-03-18T23:26:19.590Z,18.13
2023-03-18T23:28:46.890Z,15.70
2023-03-18T23:31:15.390Z,16.85
2023-03-18T23:33:42.644Z,19.02
2023-03-18T23:36:10.768Z,20.73
2023-03-18T23:38:37.985Z,25.23
2023-03-18T23:41:05.985Z,28.20
2023-03-18T23:43:32.900Z,23.90
2023-03-18T23:45:59.897Z,27.63
2023-03-18T23:48:26.776Z,26.45
2023-03-18T23:50:53.740Z,23.15
2023-03-18T23:53:20.782Z,31.67
2023-03-18T23:55:49.465Z,36.25
2023-03-18T23:58:16.583Z,30.52
